Illinois River (Oklahoma), Gore (07198000)

StateOklahomaLatestPoor (85 cfs)
RiverIllinois RiverRatingObservedEstimated
Updated2022-09-25 20:30 (1 hour ago)Flood - The river is flooding. Obstacles can be treacherous or deadly. The river should be avoided at this stage for casual trips and definitely for the inexperienced. Trips should be attempted only with protective gear and equipment.Flood(none)7502
Discharge85 cfs (median: 239 cfs)High - The river is high and potentially dangerous, especially for the young and / or inexperienced. Normal stream obstacles are sometimes difficult to navigate. Extended distances can be attempted, but canoe travel may not be advisable.High(none)1658
Height6.99 feetGood - Conditions are ideal for a canoe or kayak. Boats typically will drag on fewer than one-quarter of riffles, if at all, and portages are unnecessary or rare. Normal float lengths can be attempted without a problem.Good(none)1196
TrendFalling (falling over 24 hours)Low - River is low but can still be floated. Some riffles are okay but most come with significant dragging and might need a portage. Float lengths should be reduced to accommodate low flow, dragging, and portages.Low(none)971
USGSExternal icon USGS Site (External icon Duck Duck Go Maps)Poor - River is too low to float comfortably. Most or all riffles will drag or must be portaged and some obstacles (such as slick shelf rock) cause undue problems. Avoid the river at this stage for casual paddling trips.Poor(none)98

Trending Data

Plot Image

Trips for Illinois River (Oklahoma), Gore (07198000)

DateStartEndDistanceConditionDischargeHeightFishingDetails

A total of 0 rows are displayed.

Condition Descriptions

Fishing Conditions

Fish Species

Notes

Classic Trip List

The classic River Trips application is still available for use. It is updated with the new system using a data retrofit. It is no longer maintained. The original River Trips application is no longer updated (as of 1 Dec 2016) but can be checked for errors or for the condition of the data before it was converted to the new system.

Gauge Data Table

ObservationHeightDischargeMaximum
Discharge
Minimum
Discharge
Mean
Discharge
P05P10P20P25P50
(Median)
P75P80P90P95
2022-09-25 20:30 6.99 85 3940 (1993) 23 (1991) 719 29 56 86 92 239 1000 1240 1880 3340
2022-09-25 19:30 7.06 98 3940 (1993) 23 (1991) 719 29 56 86 92 239 1000 1240 1880 3340
2022-09-25 18:30 7.29 151 3940 (1993) 23 (1991) 719 29 56 86 92 239 1000 1240 1880 3340
2022-09-25 17:30 7.95 389 3940 (1993) 23 (1991) 719 29 56 86 92 239 1000 1240 1880 3340
2022-09-25 16:30 9.39 1580 3940 (1993) 23 (1991) 719 29 56 86 92 239 1000 1240 1880 3340
2022-09-25 15:30 6.96 79 3940 (1993) 23 (1991) 719 29 56 86 92 239 1000 1240 1880 3340
2022-09-25 14:30 6.92 73 3940 (1993) 23 (1991) 719 29 56 86 92 239 1000 1240 1880 3340
2022-09-25 13:30 6.92 73 3940 (1993) 23 (1991) 719 29 56 86 92 239 1000 1240 1880 3340
2022-09-25 12:30 6.91 71 3940 (1993) 23 (1991) 719 29 56 86 92 239 1000 1240 1880 3340
2022-09-25 11:30 6.90 69 3940 (1993) 23 (1991) 719 29 56 86 92 239 1000 1240 1880 3340
2022-09-25 10:30 6.92 73 3940 (1993) 23 (1991) 719 29 56 86 92 239 1000 1240 1880 3340
2022-09-25 09:30 6.93 74 3940 (1993) 23 (1991) 719 29 56 86 92 239 1000 1240 1880 3340
2022-09-25 08:30 6.94 76 3940 (1993) 23 (1991) 719 29 56 86 92 239 1000 1240 1880 3340
2022-09-25 07:30 6.94 76 3940 (1993) 23 (1991) 719 29 56 86 92 239 1000 1240 1880 3340
2022-09-25 06:30 6.95 78 3940 (1993) 23 (1991) 719 29 56 86 92 239 1000 1240 1880 3340
2022-09-25 05:30 6.95 78 3940 (1993) 23 (1991) 719 29 56 86 92 239 1000 1240 1880 3340
2022-09-25 04:30 6.96 79 3940 (1993) 23 (1991) 719 29 56 86 92 239 1000 1240 1880 3340
2022-09-25 03:30 6.97 81 3940 (1993) 23 (1991) 719 29 56 86 92 239 1000 1240 1880 3340
2022-09-25 02:30 6.98 83 3940 (1993) 23 (1991) 719 29 56 86 92 239 1000 1240 1880 3340
2022-09-25 01:30 7.00 87 3940 (1993) 23 (1991) 719 29 56 86 92 239 1000 1240 1880 3340
2022-09-25 00:30 7.03 92 3940 (1993) 23 (1991) 719 29 56 86 92 239 1000 1240 1880 3340
2022-09-24 23:30 7.07 100 3930 (1993) 13 (1955) 698 28 64 101 115 325 890 1160 1860 3330
2022-09-24 22:30 7.17 122 3930 (1993) 13 (1955) 698 28 64 101 115 325 890 1160 1860 3330
2022-09-24 21:30 7.41 185 3930 (1993) 13 (1955) 698 28 64 101 115 325 890 1160 1860 3330
2022-09-24 20:30 8.14 494 3930 (1993) 13 (1955) 698 28 64 101 115 325 890 1160 1860 3330
2022-09-24 19:30 10.02 2300 3930 (1993) 13 (1955) 698 28 64 101 115 325 890 1160 1860 3330
2022-09-24 18:30 11.22 3910 3930 (1993) 13 (1955) 698 28 64 101 115 325 890 1160 1860 3330
2022-09-24 17:30 11.32 4060 3930 (1993) 13 (1955) 698 28 64 101 115 325 890 1160 1860 3330
2022-09-24 16:30 10.13 2430 3930 (1993) 13 (1955) 698 28 64 101 115 325 890 1160 1860 3330
2022-09-24 15:30 9.10 1290 3930 (1993) 13 (1955) 698 28 64 101 115 325 890 1160 1860 3330
2022-09-24 14:30 8.71 922 3930 (1993) 13 (1955) 698 28 64 101 115 325 890 1160 1860 3330
2022-09-24 13:30 6.93 74 3930 (1993) 13 (1955) 698 28 64 101 115 325 890 1160 1860 3330
2022-09-24 12:30 6.91 71 3930 (1993) 13 (1955) 698 28 64 101 115 325 890 1160 1860 3330
2022-09-24 11:30 6.91 71 3930 (1993) 13 (1955) 698 28 64 101 115 325 890 1160 1860 3330
2022-09-24 10:30 6.91 71 3930 (1993) 13 (1955) 698 28 64 101 115 325 890 1160 1860 3330
2022-09-24 09:30 6.91 71 3930 (1993) 13 (1955) 698 28 64 101 115 325 890 1160 1860 3330
2022-09-24 08:30 6.91 71 3930 (1993) 13 (1955) 698 28 64 101 115 325 890 1160 1860 3330
2022-09-24 07:30 6.92 73 3930 (1993) 13 (1955) 698 28 64 101 115 325 890 1160 1860 3330
2022-09-24 06:30 6.92 73 3930 (1993) 13 (1955) 698 28 64 101 115 325 890 1160 1860 3330
2022-09-24 05:30 6.92 73 3930 (1993) 13 (1955) 698 28 64 101 115 325 890 1160 1860 3330
2022-09-24 04:30 6.92 73 3930 (1993) 13 (1955) 698 28 64 101 115 325 890 1160 1860 3330
2022-09-24 03:30 6.92 73 3930 (1993) 13 (1955) 698 28 64 101 115 325 890 1160 1860 3330
2022-09-24 02:30 6.92 73 3930 (1993) 13 (1955) 698 28 64 101 115 325 890 1160 1860 3330
2022-09-24 01:30 6.93 74 3930 (1993) 13 (1955) 698 28 64 101 115 325 890 1160 1860 3330
2022-09-24 00:30 6.93 74 3930 (1993) 13 (1955) 698 28 64 101 115 325 890 1160 1860 3330
2022-09-23 23:30 6.93 74 3920 (1993) 24 (1991) 727 38 54 91 103 428 994 1080 2200 3040
2022-09-23 22:30 6.93 74 3920 (1993) 24 (1991) 727 38 54 91 103 428 994 1080 2200 3040
2022-09-23 21:30 6.94 76 3920 (1993) 24 (1991) 727 38 54 91 103 428 994 1080 2200 3040
2022-09-23 20:30 6.95 78 3920 (1993) 24 (1991) 727 38 54 91 103 428 994 1080 2200 3040
2022-09-23 19:30 6.97 81 3920 (1993) 24 (1991) 727 38 54 91 103 428 994 1080 2200 3040
2022-09-23 18:30 7.00 87 3920 (1993) 24 (1991) 727 38 54 91 103 428 994 1080 2200 3040
2022-09-23 17:30 7.08 102 3920 (1993) 24 (1991) 727 38 54 91 103 428 994 1080 2200 3040
2022-09-23 16:30 7.31 157 3920 (1993) 24 (1991) 727 38 54 91 103 428 994 1080 2200 3040
2022-09-23 15:30 7.99 407 3920 (1993) 24 (1991) 727 38 54 91 103 428 994 1080 2200 3040
2022-09-23 14:30 9.58 1790 3920 (1993) 24 (1991) 727 38 54 91 103 428 994 1080 2200 3040
2022-09-23 13:30 8.87 1070 3920 (1993) 24 (1991) 727 38 54 91 103 428 994 1080 2200 3040
2022-09-23 12:30 6.93 74 3920 (1993) 24 (1991) 727 38 54 91 103 428 994 1080 2200 3040
2022-09-23 11:30 6.92 73 3920 (1993) 24 (1991) 727 38 54 91 103 428 994 1080 2200 3040
2022-09-23 10:30 6.92 73 3920 (1993) 24 (1991) 727 38 54 91 103 428 994 1080 2200 3040
2022-09-23 09:30 6.91 71 3920 (1993) 24 (1991) 727 38 54 91 103 428 994 1080 2200 3040
2022-09-23 08:30 6.93 74 3920 (1993) 24 (1991) 727 38 54 91 103 428 994 1080 2200 3040
2022-09-23 07:30 6.93 74 3920 (1993) 24 (1991) 727 38 54 91 103 428 994 1080 2200 3040
2022-09-23 06:30 6.94 76 3920 (1993) 24 (1991) 727 38 54 91 103 428 994 1080 2200 3040
2022-09-23 05:30 6.94 76 3920 (1993) 24 (1991) 727 38 54 91 103 428 994 1080 2200 3040
2022-09-23 04:30 6.94 76 3920 (1993) 24 (1991) 727 38 54 91 103 428 994 1080 2200 3040
2022-09-23 03:30 6.95 78 3920 (1993) 24 (1991) 727 38 54 91 103 428 994 1080 2200 3040
2022-09-23 02:30 6.95 78 3920 (1993) 24 (1991) 727 38 54 91 103 428 994 1080 2200 3040
2022-09-23 01:30 6.96 79 3920 (1993) 24 (1991) 727 38 54 91 103 428 994 1080 2200 3040
2022-09-23 00:30 6.97 81 3920 (1993) 24 (1991) 727 38 54 91 103 428 994 1080 2200 3040
2022-09-22 23:30 6.99 85 3910 (1993) 24 (1991) 682 30 58 100 112 362 1030 1170 1650 2970
2022-09-22 22:30 7.01 89 3910 (1993) 24 (1991) 682 30 58 100 112 362 1030 1170 1650 2970
2022-09-22 21:30 7.08 102 3910 (1993) 24 (1991) 682 30 58 100 112 362 1030 1170 1650 2970
2022-09-22 20:30 7.26 144 3910 (1993) 24 (1991) 682 30 58 100 112 362 1030 1170 1650 2970
2022-09-22 19:30 7.79 319 3910 (1993) 24 (1991) 682 30 58 100 112 362 1030 1170 1650 2970
2022-09-22 18:30 8.92 1110 3910 (1993) 24 (1991) 682 30 58 100 112 362 1030 1170 1650 2970
2022-09-22 17:30 9.02 1210 3910 (1993) 24 (1991) 682 30 58 100 112 362 1030 1170 1650 2970
2022-09-22 16:30 8.95 1140 3910 (1993) 24 (1991) 682 30 58 100 112 362 1030 1170 1650 2970
2022-09-22 15:30 8.94 1130 3910 (1993) 24 (1991) 682 30 58 100 112 362 1030 1170 1650 2970
2022-09-22 14:30 8.93 1120 3910 (1993) 24 (1991) 682 30 58 100 112 362 1030 1170 1650 2970
2022-09-22 13:30 8.92 1110 3910 (1993) 24 (1991) 682 30 58 100 112 362 1030 1170 1650 2970
2022-09-22 12:30 8.89 1090 3910 (1993) 24 (1991) 682 30 58 100 112 362 1030 1170 1650 2970
2022-09-22 11:30 8.57 802 3910 (1993) 24 (1991) 682 30 58 100 112 362 1030 1170 1650 2970
2022-09-22 10:30 6.73 45 3910 (1993) 24 (1991) 682 30 58 100 112 362 1030 1170 1650 2970
2022-09-22 09:30 6.82 57 3910 (1993) 24 (1991) 682 30 58 100 112 362 1030 1170 1650 2970
2022-09-22 08:30 6.95 78 3910 (1993) 24 (1991) 682 30 58 100 112 362 1030 1170 1650 2970
2022-09-22 07:30 6.99 85 3910 (1993) 24 (1991) 682 30 58 100 112 362 1030 1170 1650 2970
2022-09-22 06:30 7.00 87 3910 (1993) 24 (1991) 682 30 58 100 112 362 1030 1170 1650 2970
2022-09-22 05:30 7.01 89 3910 (1993) 24 (1991) 682 30 58 100 112 362 1030 1170 1650 2970
2022-09-22 04:30 7.02 91 3910 (1993) 24 (1991) 682 30 58 100 112 362 1030 1170 1650 2970
2022-09-22 03:30 7.03 92 3910 (1993) 24 (1991) 682 30 58 100 112 362 1030 1170 1650 2970
2022-09-22 02:30 7.05 96 3910 (1993) 24 (1991) 682 30 58 100 112 362 1030 1170 1650 2970
2022-09-22 01:30 7.07 100 3910 (1993) 24 (1991) 682 30 58 100 112 362 1030 1170 1650 2970
2022-09-22 00:30 7.10 107 3910 (1993) 24 (1991) 682 30 58 100 112 362 1030 1170 1650 2970
2022-09-21 23:30 7.16 120 4700 (1993) 22 (1991) 708 42 75 118 140 560 941 1090 1490 2260
2022-09-21 22:30 7.28 149 4700 (1993) 22 (1991) 708 42 75 118 140 560 941 1090 1490 2260
2022-09-21 21:30 7.58 239 4700 (1993) 22 (1991) 708 42 75 118 140 560 941 1090 1490 2260
2022-09-21 20:30 8.58 810 4700 (1993) 22 (1991) 708 42 75 118 140 560 941 1090 1490 2260
2022-09-21 19:30 10.96 3530 4700 (1993) 22 (1991) 708 42 75 118 140 560 941 1090 1490 2260
2022-09-21 18:30 11.50 4340 4700 (1993) 22 (1991) 708 42 75 118 140 560 941 1090 1490 2260
2022-09-21 17:30 11.50 4340 4700 (1993) 22 (1991) 708 42 75 118 140 560 941 1090 1490 2260
2022-09-21 16:30 11.48 4310 4700 (1993) 22 (1991) 708 42 75 118 140 560 941 1090 1490 2260
2022-09-21 15:30 11.51 4350 4700 (1993) 22 (1991) 708 42 75 118 140 560 941 1090 1490 2260
2022-09-21 14:30 11.25 3950 4700 (1993) 22 (1991) 708 42 75 118 140 560 941 1090 1490 2260
2022-09-21 13:30 9.50 1700 4700 (1993) 22 (1991) 708 42 75 118 140 560 941 1090 1490 2260
2022-09-21 12:30 8.95 1140 4700 (1993) 22 (1991) 708 42 75 118 140 560 941 1090 1490 2260
2022-09-21 11:30 8.64 861 4700 (1993) 22 (1991) 708 42 75 118 140 560 941 1090 1490 2260
2022-09-21 10:30 6.85 61 4700 (1993) 22 (1991) 708 42 75 118 140 560 941 1090 1490 2260
2022-09-21 09:30 7.06 98 4700 (1993) 22 (1991) 708 42 75 118 140 560 941 1090 1490 2260
2022-09-21 08:30 7.37 173 4700 (1993) 22 (1991) 708 42 75 118 140 560 941 1090 1490 2260
2022-09-21 07:30 7.42 188 4700 (1993) 22 (1991) 708 42 75 118 140 560 941 1090 1490 2260
2022-09-21 06:30 7.43 191 4700 (1993) 22 (1991) 708 42 75 118 140 560 941 1090 1490 2260
2022-09-21 05:30 7.43 191 4700 (1993) 22 (1991) 708 42 75 118 140 560 941 1090 1490 2260
2022-09-21 04:30 7.44 194 4700 (1993) 22 (1991) 708 42 75 118 140 560 941 1090 1490 2260
2022-09-21 03:30 7.45 197 4700 (1993) 22 (1991) 708 42 75 118 140 560 941 1090 1490 2260
2022-09-21 02:30 7.46 200 4700 (1993) 22 (1991) 708 42 75 118 140 560 941 1090 1490 2260
2022-09-21 01:30 7.48 206 4700 (1993) 22 (1991) 708 42 75 118 140 560 941 1090 1490 2260
2022-09-21 00:30 7.51 216 4700 (1993) 22 (1991) 708 42 75 118 140 560 941 1090 1490 2260
2022-09-20 23:30 7.56 232 5400 (1993) 23 (1991) 844 41 70 99 134 599 1220 1300 1760 3160
2022-09-20 22:30 7.72 291 5400 (1993) 23 (1991) 844 41 70 99 134 599 1220 1300 1760 3160
2022-09-20 21:30 8.35 633 5400 (1993) 23 (1991) 844 41 70 99 134 599 1220 1300 1760 3160
2022-09-20 20:30 10.17 2480 5400 (1993) 23 (1991) 844 41 70 99 134 599 1220 1300 1760 3160
2022-09-20 19:30 11.40 4180 5400 (1993) 23 (1991) 844 41 70 99 134 599 1220 1300 1760 3160
2022-09-20 18:30 11.68 4630 5400 (1993) 23 (1991) 844 41 70 99 134 599 1220 1300 1760 3160
2022-09-20 17:30 11.66 4590 5400 (1993) 23 (1991) 844 41 70 99 134 599 1220 1300 1760 3160
2022-09-20 16:30 11.52 4370 5400 (1993) 23 (1991) 844 41 70 99 134 599 1220 1300 1760 3160
2022-09-20 15:30 11.46 4280 5400 (1993) 23 (1991) 844 41 70 99 134 599 1220 1300 1760 3160
2022-09-20 14:30 11.20 3880 5400 (1993) 23 (1991) 844 41 70 99 134 599 1220 1300 1760 3160
2022-09-20 13:30 9.46 1660 5400 (1993) 23 (1991) 844 41 70 99 134 599 1220 1300 1760 3160
2022-09-20 12:30 8.91 1100 5400 (1993) 23 (1991) 844 41 70 99 134 599 1220 1300 1760 3160
2022-09-20 11:30 8.61 835 5400 (1993) 23 (1991) 844 41 70 99 134 599 1220 1300 1760 3160
2022-09-20 10:30 6.78 51 5400 (1993) 23 (1991) 844 41 70 99 134 599 1220 1300 1760 3160
2022-09-20 09:30 6.95 78 5400 (1993) 23 (1991) 844 41 70 99 134 599 1220 1300 1760 3160
2022-09-20 08:30 7.25 141 5400 (1993) 23 (1991) 844 41 70 99 134 599 1220 1300 1760 3160
2022-09-20 07:30 7.42 188 5400 (1993) 23 (1991) 844 41 70 99 134 599 1220 1300 1760 3160
2022-09-20 06:30 7.43 191 5400 (1993) 23 (1991) 844 41 70 99 134 599 1220 1300 1760 3160
2022-09-20 05:30 7.43 191 5400 (1993) 23 (1991) 844 41 70 99 134 599 1220 1300 1760 3160
2022-09-20 04:30 7.44 194 5400 (1993) 23 (1991) 844 41 70 99 134 599 1220 1300 1760 3160
2022-09-20 03:30 7.45 197 5400 (1993) 23 (1991) 844 41 70 99 134 599 1220 1300 1760 3160
2022-09-20 02:30 7.46 200 5400 (1993) 23 (1991) 844 41 70 99 134 599 1220 1300 1760 3160
2022-09-20 01:30 7.47 203 5400 (1993) 23 (1991) 844 41 70 99 134 599 1220 1300 1760 3160
2022-09-20 00:30 7.50 213 5400 (1993) 23 (1991) 844 41 70 99 134 599 1220 1300 1760 3160
2022-09-19 23:30 7.53 222 5310 (1993) 26 (1991) 833 38 74 102 138 533 1070 1300 2270 3100
2022-09-19 22:30 7.60 246 5310 (1993) 26 (1991) 833 38 74 102 138 533 1070 1300 2270 3100
2022-09-19 21:30 7.82 331 5310 (1993) 26 (1991) 833 38 74 102 138 533 1070 1300 2270 3100
2022-09-19 20:30 8.77 975 5310 (1993) 26 (1991) 833 38 74 102 138 533 1070 1300 2270 3100
2022-09-19 19:30 11.12 3760 5310 (1993) 26 (1991) 833 38 74 102 138 533 1070 1300 2270 3100
2022-09-19 18:30 11.67 4610 5310 (1993) 26 (1991) 833 38 74 102 138 533 1070 1300 2270 3100
2022-09-19 17:30 11.63 4550 5310 (1993) 26 (1991) 833 38 74 102 138 533 1070 1300 2270 3100
2022-09-19 16:30 11.51 4350 5310 (1993) 26 (1991) 833 38 74 102 138 533 1070 1300 2270 3100
2022-09-19 15:30 11.44 4240 5310 (1993) 26 (1991) 833 38 74 102 138 533 1070 1300 2270 3100
2022-09-19 14:30 11.25 3950 5310 (1993) 26 (1991) 833 38 74 102 138 533 1070 1300 2270 3100
2022-09-19 11:30 8.58 810 5310 (1993) 26 (1991) 833 38 74 102 138 533 1070 1300 2270 3100
2022-09-19 10:30 6.70 41 5310 (1993) 26 (1991) 833 38 74 102 138 533 1070 1300 2270 3100
2022-09-19 09:30 6.78 51 5310 (1993) 26 (1991) 833 38 74 102 138 533 1070 1300 2270 3100
2022-09-19 08:30 6.84 60 5310 (1993) 26 (1991) 833 38 74 102 138 533 1070 1300 2270 3100
2022-09-19 07:30 6.85 61 5310 (1993) 26 (1991) 833 38 74 102 138 533 1070 1300 2270 3100
2022-09-19 06:30 6.85 61 5310 (1993) 26 (1991) 833 38 74 102 138 533 1070 1300 2270 3100
2022-09-19 05:30 6.85 61 5310 (1993) 26 (1991) 833 38 74 102 138 533 1070 1300 2270 3100
2022-09-19 04:30 6.86 63 5310 (1993) 26 (1991) 833 38 74 102 138 533 1070 1300 2270 3100
2022-09-19 03:30 6.86 63 5310 (1993) 26 (1991) 833 38 74 102 138 533 1070 1300 2270 3100
2022-09-19 02:30 6.87 65 5310 (1993) 26 (1991) 833 38 74 102 138 533 1070 1300 2270 3100
2022-09-19 01:30 6.87 65 5310 (1993) 26 (1991) 833 38 74 102 138 533 1070 1300 2270 3100
2022-09-19 00:30 6.88 66 5310 (1993) 26 (1991) 833 38 74 102 138 533 1070 1300 2270 3100
2022-09-18 23:30 6.90 69 5410 (1993) 25 (1994) 745 37 72 98 105 350 903 1000 1950 3340
2022-09-18 22:30 6.93 74 5410 (1993) 25 (1994) 745 37 72 98 105 350 903 1000 1950 3340
2022-09-18 21:30 7.01 89 5410 (1993) 25 (1994) 745 37 72 98 105 350 903 1000 1950 3340
2022-09-18 20:30 7.21 131 5410 (1993) 25 (1994) 745 37 72 98 105 350 903 1000 1950 3340
2022-09-18 19:30 7.75 302 5410 (1993) 25 (1994) 745 37 72 98 105 350 903 1000 1950 3340
2022-09-18 18:30 8.89 1090 5410 (1993) 25 (1994) 745 37 72 98 105 350 903 1000 1950 3340
2022-09-18 17:30 9.01 1200 5410 (1993) 25 (1994) 745 37 72 98 105 350 903 1000 1950 3340
2022-09-18 16:30 9.00 1190 5410 (1993) 25 (1994) 745 37 72 98 105 350 903 1000 1950 3340
2022-09-18 15:30 8.96 1150 5410 (1993) 25 (1994) 745 37 72 98 105 350 903 1000 1950 3340
2022-09-18 14:30 8.68 896 5410 (1993) 25 (1994) 745 37 72 98 105 350 903 1000 1950 3340
2022-09-18 13:30 6.84 60 5410 (1993) 25 (1994) 745 37 72 98 105 350 903 1000 1950 3340
2022-09-18 12:30 6.83 59 5410 (1993) 25 (1994) 745 37 72 98 105 350 903 1000 1950 3340
2022-09-18 11:30 6.83 59 5410 (1993) 25 (1994) 745 37 72 98 105 350 903 1000 1950 3340
2022-09-18 10:30 6.84 60 5410 (1993) 25 (1994) 745 37 72 98 105 350 903 1000 1950 3340
2022-09-18 09:30 6.83 59 5410 (1993) 25 (1994) 745 37 72 98 105 350 903 1000 1950 3340
2022-09-18 08:30 6.84 60 5410 (1993) 25 (1994) 745 37 72 98 105 350 903 1000 1950 3340
2022-09-18 07:30 6.84 60 5410 (1993) 25 (1994) 745 37 72 98 105 350 903 1000 1950 3340
2022-09-18 06:30 6.84 60 5410 (1993) 25 (1994) 745 37 72 98 105 350 903 1000 1950 3340
2022-09-18 05:30 6.84 60 5410 (1993) 25 (1994) 745 37 72 98 105 350 903 1000 1950 3340
2022-09-18 04:30 6.84 60 5410 (1993) 25 (1994) 745 37 72 98 105 350 903 1000 1950 3340
2022-09-18 03:30 6.85 61 5410 (1993) 25 (1994) 745 37 72 98 105 350 903 1000 1950 3340
2022-09-18 02:30 6.85 61 5410 (1993) 25 (1994) 745 37 72 98 105 350 903 1000 1950 3340
2022-09-18 01:30 6.85 61 5410 (1993) 25 (1994) 745 37 72 98 105 350 903 1000 1950 3340
2022-09-18 00:30 6.85 61 5410 (1993) 25 (1994) 745 37 72 98 105 350 903 1000 1950 3340

A total of 187 rows are displayed for years 1954 through 2020.